Time;durP1;ratioP1;P1;durP2;ratioP2;P2;SDS_P1;SDS_P2;PMS_P1;PMS_P2;Temp;Humidity;BMP_temperature;BMP_pressure;BME280_temperature;BME280_humidity;BME280_pressure;Samples;Min_cycle;Max_cycle;Signal;HPM_P1;HPM_P2
2023/03/21 00:02:02;;;;;;;25.23;18.20;;;8.50;68.00;;;;;;4973002;28;20544;-55
2023/03/21 00:04:27;;;;;;;22.67;17.33;;;8.50;67.90;;;;;;4972909;28;20106;-53
2023/03/21 00:06:53;;;;;;;26.88;18.40;;;8.50;67.70;;;;;;4972982;28;20031;-68
2023/03/21 00:09:19;;;;;;;24.10;18.38;;;8.50;67.70;;;;;;4966597;28;20034;-67
2023/03/21 00:11:45;;;;;;;23.50;17.65;;;8.40;67.80;;;;;;4965121;28;20027;-67
2023/03/21 00:14:13;;;;;;;24.88;17.88;;;8.40;68.00;;;;;;4969883;28;20041;-67
2023/03/21 00:16:39;;;;;;;23.42;17.65;;;8.30;68.10;;;;;;4973212;28;20031;-66
2023/03/21 00:19:06;;;;;;;21.70;16.92;;;8.30;68.50;;;;;;4970709;28;20027;-65
2023/03/21 00:21:37;;;;;;;24.75;16.63;;;8.30;68.60;;;;;;4972944;28;20042;-67
2023/03/21 00:24:03;;;;;;;25.23;16.77;;;8.30;68.70;;;;;;4969791;28;20027;-67
2023/03/21 00:26:30;;;;;;;23.98;16.05;;;8.30;68.80;;;;;;4973621;28;20051;-68
2023/03/21 00:28:56;;;;;;;19.67;14.93;;;8.20;68.90;;;;;;4976484;28;20799;-65
2023/03/21 00:31:22;;;;;;;21.77;16.10;;;8.20;69.30;;;;;;4976656;28;20089;-67
2023/03/21 00:33:47;;;;;;;22.52;16.88;;;8.30;69.40;;;;;;4971735;28;20027;-62
2023/03/21 00:36:14;;;;;;;18.95;15.05;;;8.20;69.40;;;;;;4971857;28;20042;-66
2023/03/21 00:38:40;;;;;;;19.50;14.77;;;8.20;69.60;;;;;;4972671;28;20053;-66
2023/03/21 00:41:09;;;;;;;21.33;15.38;;;8.20;69.70;;;;;;4976465;28;20078;-61
2023/03/21 00:43:35;;;;;;;21.25;15.23;;;8.20;69.80;;;;;;4975080;28;20047;-61
2023/03/21 00:46:01;;;;;;;18.95;14.98;;;8.20;69.90;;;;;;4975732;28;20046;-60
2023/03/21 00:48:28;;;;;;;20.95;15.73;;;8.20;70.00;;;;;;4973430;28;20145;-60
2023/03/21 00:50:56;;;;;;;19.58;14.43;;;8.30;70.20;;;;;;4973476;28;20027;-60
2023/03/21 00:53:22;;;;;;;18.65;13.90;;;8.30;70.20;;;;;;4976020;28;20023;-59
2023/03/21 00:55:48;;;;;;;18.00;14.07;;;8.30;70.20;;;;;;4973899;28;20031;-59
2023/03/21 00:58:14;;;;;;;18.10;13.70;;;8.20;70.30;;;;;;4975383;28;20042;-60
2023/03/21 01:00:40;;;;;;;19.45;14.68;;;8.30;70.50;;;;;;4976304;28;20506;-62
2023/03/21 01:03:07;;;;;;;19.42;14.13;;;8.20;70.40;;;;;;4975778;28;20166;-62
2023/03/21 01:08:25;;;;;;;19.95;14.48;;;8.20;70.70;;;;;;4968000;28;20765;-61
2023/03/21 01:10:51;;;;;;;18.23;13.80;;;8.20;70.80;;;;;;4975633;28;20409;-62
2023/03/21 01:13:21;;;;;;;20.10;14.13;;;8.30;70.80;;;;;;4976131;28;20081;-62
2023/03/21 01:15:50;;;;;;;18.13;13.60;;;8.20;70.60;;;;;;4970719;28;20572;-62
2023/03/21 01:18:18;;;;;;;16.73;12.82;;;8.20;70.70;;;;;;4975835;28;20049;-62
2023/03/21 01:20:44;;;;;;;17.70;13.30;;;8.20;70.90;;;;;;4963647;28;20058;-62
2023/03/21 01:23:12;;;;;;;19.58;14.13;;;8.20;70.90;;;;;;4974599;28;20023;-62
2023/03/21 01:25:38;;;;;;;17.83;13.18;;;8.10;70.90;;;;;;4968331;28;20189;-62
2023/03/21 01:28:04;;;;;;;17.63;12.75;;;8.10;71.20;;;;;;4975441;28;20528;-62
2023/03/21 01:30:30;;;;;;;18.77;13.52;;;8.10;71.20;;;;;;4975233;28;20039;-62
2023/03/21 01:32:56;;;;;;;16.92;12.63;;;8.10;71.30;;;;;;4975165;28;20023;-62
2023/03/21 01:35:23;;;;;;;19.88;13.57;;;8.00;71.30;;;;;;4969176;28;20097;-61
2023/03/21 01:37:49;;;;;;;19.50;13.77;;;8.00;71.40;;;;;;4967802;28;20031;-62
2023/03/21 01:40:23;;;;;;;19.48;14.00;;;8.00;71.60;;;;;;4967861;28;20027;-62
2023/03/21 01:42:49;;;;;;;18.20;13.70;;;8.00;71.70;;;;;;4971961;28;20038;-62
2023/03/21 01:45:52;;;;;;;17.85;13.25;;;7.90;71.60;;;;;;4983111;28;20033;-62
2023/03/21 01:48:19;;;;;;;20.70;13.38;;;7.90;71.70;;;;;;4974315;28;20075;-62
2023/03/21 01:50:45;;;;;;;15.75;12.77;;;7.90;72.00;;;;;;4975553;28;20374;-62
2023/03/21 01:53:12;;;;;;;18.20;13.32;;;7.80;72.00;;;;;;4973772;28;20042;-62
2023/03/21 01:55:38;;;;;;;18.05;13.57;;;7.80;72.10;;;;;;4975970;28;20022;-61
2023/03/21 01:58:06;;;;;;;17.65;13.38;;;7.80;72.30;;;;;;4975096;28;20034;-62
2023/03/21 02:00:32;;;;;;;19.60;13.90;;;7.70;72.40;;;;;;4974973;28;20039;-61
2023/03/21 02:03:01;;;;;;;17.75;13.23;;;7.70;72.50;;;;;;4969488;28;20185;-62
2023/03/21 02:05:39;;;;;;;19.33;13.90;;;7.70;72.70;;;;;;4970947;28;20351;-61
2023/03/21 02:08:05;;;;;;;19.98;14.55;;;7.70;72.70;;;;;;4969805;28;20466;-62
2023/03/21 02:10:32;;;;;;;17.98;14.07;;;7.60;72.80;;;;;;4973865;28;20045;-61
2023/03/21 02:13:06;;;;;;;19.17;13.93;;;7.60;72.90;;;;;;4975352;28;20035;-62
2023/03/21 02:15:33;;;;;;;18.73;13.63;;;7.60;73.00;;;;;;4971423;28;20058;-62
2023/03/21 02:18:27;;;;;;;19.65;14.20;;;7.60;73.30;;;;;;4974784;28;20030;-62
2023/03/21 02:20:59;;;;;;;19.52;15.00;;;7.60;73.40;;;;;;4965338;28;20026;-62
2023/03/21 02:23:43;;;;;;;;;;;7.60;73.50;;;;;;4968849;28;20111;-62
2023/03/21 02:26:28;;;;;;;17.63;13.27;;;7.50;73.40;;;;;;4971754;28;20382;-62
2023/03/21 02:29:20;;;;;;;21.15;15.63;;;7.50;73.40;;;;;;4967489;28;20478;-62
2023/03/21 02:32:12;;;;;;;20.95;14.98;;;7.50;73.50;;;;;;4974244;28;20027;-61
2023/03/21 02:34:53;;;;;;;;;;;7.50;73.50;;;;;;4972354;28;20093;-61
2023/03/21 02:37:25;;;;;;;17.67;13.77;;;7.50;73.70;;;;;;4970592;28;19957;-62
2023/03/21 02:40:15;;;;;;;18.27;14.00;;;7.50;73.60;;;;;;4969138;28;20755;-61
2023/03/21 02:42:50;;;;;;;20.25;14.98;;;7.50;73.70;;;;;;4971326;28;20097;-61
2023/03/21 02:45:20;;;;;;;19.25;14.40;;;7.50;73.80;;;;;;4974069;28;20042;-62
2023/03/21 02:47:54;;;;;;;21.60;14.93;;;7.50;73.80;;;;;;4987130;28;20037;-62
2023/03/21 02:50:44;;;;;;;21.60;15.15;;;7.50;73.80;;;;;;4973297;28;20038;-61
2023/03/21 02:53:14;;;;;;;21.35;14.73;;;7.50;73.90;;;;;;4962968;28;20458;-61
2023/03/21 02:55:42;;;;;;;20.45;15.00;;;7.50;74.00;;;;;;4975547;28;20456;-61
2023/03/21 02:58:11;;;;;;;19.80;15.73;;;7.50;73.90;;;;;;4965636;28;20041;-61
2023/03/21 03:00:38;;;;;;;20.67;14.45;;;7.50;74.10;;;;;;4974367;28;20475;-61
2023/03/21 03:03:03;;;;;;;18.23;14.43;;;7.50;74.10;;;;;;4973944;28;20027;-61
2023/03/21 03:05:34;;;;;;;19.85;14.20;;;7.50;74.30;;;;;;4973994;28;20497;-61
2023/03/21 03:08:19;;;;;;;18.52;13.85;;;7.60;74.20;;;;;;4973489;28;20086;-61
2023/03/21 03:11:22;;;;;;;19.05;14.38;;;7.50;74.10;;;;;;4973668;28;20039;-60
2023/03/21 03:14:02;;;;;;;19.67;14.85;;;7.60;74.30;;;;;;4968141;28;20557;-60
2023/03/21 03:16:40;;;;;;;21.95;15.07;;;7.60;74.30;;;;;;4971192;28;20126;-60
2023/03/21 03:19:16;;;;;;;16.70;13.68;;;7.60;74.40;;;;;;4968889;28;20031;-60
2023/03/21 03:21:50;;;;;;;20.88;15.30;;;7.60;74.50;;;;;;4973533;28;20042;-61
2023/03/21 03:24:35;;;;;;;22.45;15.27;;;7.60;74.50;;;;;;4972422;28;20118;-61
2023/03/21 03:27:19;;;;;;;18.83;14.85;;;7.60;74.50;;;;;;4973182;28;20043;-60
2023/03/21 03:29:47;;;;;;;19.48;14.18;;;7.60;74.50;;;;;;4973297;28;20042;-60
2023/03/21 03:32:18;;;;;;;19.10;14.20;;;7.60;74.60;;;;;;4973664;28;20030;-60
2023/03/21 03:34:49;;;;;;;19.90;14.20;;;7.60;75.10;;;;;;4968002;28;20485;-60
2023/03/21 03:37:19;;;;;;;19.15;14.55;;;7.60;74.50;;;;;;4973379;28;20121;-59
2023/03/21 03:39:50;;;;;;;18.27;14.20;;;7.60;74.60;;;;;;4966844;28;20442;-59
2023/03/21 03:42:43;;;;;;;20.52;14.30;;;7.70;74.60;;;;;;4970917;28;20033;-60
2023/03/21 03:45:09;;;;;;;18.33;14.70;;;7.70;74.70;;;;;;4957425;28;20118;-61
2023/03/21 03:47:35;;;;;;;20.02;14.43;;;7.70;74.60;;;;;;4979529;28;20031;-60
2023/03/21 03:50:05;;;;;;;18.73;13.90;;;7.80;74.60;;;;;;4972268;28;20062;-59
2023/03/21 03:52:35;;;;;;;22.30;15.13;;;7.80;74.50;;;;;;4972656;28;20034;-61
2023/03/21 03:55:02;;;;;;;21.73;15.33;;;7.80;74.50;;;;;;4974436;28;20038;-60
2023/03/21 03:57:29;;;;;;;20.10;15.65;;;7.80;74.40;;;;;;4976531;28;20027;-61
2023/03/21 03:59:54;;;;;;;19.95;14.57;;;7.80;74.50;;;;;;4972873;28;20026;-59
2023/03/21 04:02:20;;;;;;;19.90;15.00;;;7.80;74.70;;;;;;4969785;28;20476;-65
2023/03/21 04:04:46;;;;;;;20.63;14.38;;;7.90;74.60;;;;;;4972533;28;20034;-64
2023/03/21 04:07:12;;;;;;;20.48;14.90;;;7.90;74.50;;;;;;4972282;28;20125;-67
2023/03/21 04:09:38;;;;;;;19.50;14.57;;;7.90;74.40;;;;;;4972653;28;20110;-66
2023/03/21 04:12:04;;;;;;;20.27;14.52;;;7.90;74.40;;;;;;4972541;28;20406;-66
2023/03/21 04:14:29;;;;;;;19.35;14.38;;;7.90;74.70;;;;;;4964746;28;20070;-66
2023/03/21 04:16:55;;;;;;;21.30;14.77;;;7.90;74.40;;;;;;4969593;28;20390;-67
2023/03/21 04:19:21;;;;;;;18.38;13.60;;;7.90;74.40;;;;;;4962185;28;20368;-67
2023/03/21 04:21:47;;;;;;;18.75;13.45;;;8.00;74.40;;;;;;4965384;28;20038;-65
2023/03/21 04:24:13;;;;;;;17.33;13.43;;;8.00;74.40;;;;;;4971410;28;20035;-66
2023/03/21 04:26:40;;;;;;;20.23;14.82;;;7.90;74.40;;;;;;4972554;28;20377;-67
2023/03/21 04:29:06;;;;;;;21.15;15.73;;;7.90;74.50;;;;;;4971590;28;20039;-65
2023/03/21 04:31:33;;;;;;;19.48;14.68;;;8.00;74.60;;;;;;4972693;28;20477;-66
2023/03/21 04:34:04;;;;;;;20.08;15.43;;;8.00;74.60;;;;;;4972609;28;20655;-66
2023/03/21 04:36:37;;;;;;;23.20;16.65;;;8.10;74.40;;;;;;4972080;28;20018;-67
2023/03/21 04:39:05;;;;;;;21.88;15.70;;;8.10;74.30;;;;;;4971501;28;20118;-66
2023/03/21 04:41:31;;;;;;;25.42;17.55;;;8.10;74.30;;;;;;4962522;28;20465;-66
2023/03/21 04:43:56;;;;;;;25.95;18.23;;;8.10;74.30;;;;;;4978396;28;20061;-68
2023/03/21 04:46:23;;;;;;;25.85;18.80;;;8.20;74.40;;;;;;4977202;28;20026;-68
2023/03/21 04:48:48;;;;;;;29.25;19.70;;;8.20;74.40;;;;;;4980080;28;20104;-66
2023/03/21 04:51:15;;;;;;;28.52;19.75;;;8.20;74.50;;;;;;4972134;28;20121;-63
2023/03/21 04:53:43;;;;;;;23.83;19.05;;;8.30;74.70;;;;;;4971694;28;20042;-67
2023/03/21 04:56:10;;;;;;;28.08;20.52;;;8.30;74.50;;;;;;4974266;28;20038;-67
2023/03/21 04:58:37;;;;;;;29.27;20.55;;;8.40;74.40;;;;;;4962726;28;20043;-65
2023/03/21 05:01:04;;;;;;;28.00;21.25;;;8.40;74.50;;;;;;4966032;28;20035;-66
2023/03/21 05:03:33;;;;;;;31.67;22.48;;;8.50;74.30;;;;;;4971989;28;20034;-67
2023/03/21 05:05:59;;;;;;;31.63;21.80;;;8.50;74.20;;;;;;4968018;28;20436;-65
2023/03/21 05:08:25;;;;;;;33.58;22.35;;;8.50;74.30;;;;;;4963868;28;20037;-65
2023/03/21 05:10:51;;;;;;;29.05;22.88;;;8.60;74.20;;;;;;4972259;28;20030;-66
2023/03/21 05:13:16;;;;;;;31.13;22.23;;;8.60;74.20;;;;;;4974892;28;20062;-66
2023/03/21 05:15:42;;;;;;;35.65;23.30;;;8.70;74.40;;;;;;4972733;28;20035;-66
2023/03/21 05:18:11;;;;;;;32.05;22.55;;;8.80;74.20;;;;;;4971558;28;20422;-67
2023/03/21 05:20:41;;;;;;;27.95;20.48;;;8.90;74.10;;;;;;4974186;28;20529;-66
2023/03/21 05:23:09;;;;;;;28.88;20.98;;;9.00;73.90;;;;;;4974067;28;20030;-70
2023/03/21 05:25:36;;;;;;;30.48;22.35;;;9.20;73.90;;;;;;4974533;28;20454;-66
2023/03/21 05:28:04;;;;;;;31.23;22.23;;;9.30;73.50;;;;;;4976381;28;21583;-67
2023/03/21 05:30:30;;;;;;;29.08;21.90;;;9.40;73.30;;;;;;4974659;28;20031;-68
2023/03/21 05:32:55;;;;;;;31.52;22.38;;;9.50;72.80;;;;;;4974064;28;20379;-66
2023/03/21 05:35:21;;;;;;;31.77;22.60;;;9.70;72.60;;;;;;4972545;28;20034;-68
2023/03/21 05:37:47;;;;;;;32.60;22.92;;;9.70;72.00;;;;;;4965048;28;20466;-66
2023/03/21 05:40:14;;;;;;;32.30;22.60;;;9.80;71.70;;;;;;4974615;28;20058;-66
2023/03/21 05:42:40;;;;;;;30.25;21.35;;;9.90;71.60;;;;;;4978207;28;20031;-69
2023/03/21 05:45:06;;;;;;;30.02;22.23;;;9.90;71.50;;;;;;4973059;28;20117;-66
2023/03/21 05:47:32;;;;;;;29.48;21.67;;;9.90;71.40;;;;;;4975619;28;20077;-64
2023/03/21 05:49:57;;;;;;;29.08;21.73;;;10.00;71.50;;;;;;4975092;28;20035;-67
2023/03/21 05:52:23;;;;;;;33.25;22.27;;;10.00;71.30;;;;;;4974952;28;20058;-66
2023/03/21 05:54:49;;;;;;;27.52;20.27;;;10.00;71.10;;;;;;4971806;28;20047;-65
2023/03/21 05:57:17;;;;;;;28.02;19.63;;;10.00;71.00;;;;;;4960481;28;20038;-60
2023/03/21 05:59:43;;;;;;;26.02;19.02;;;10.10;71.20;;;;;;4967559;28;20033;-61
2023/03/21 06:02:09;;;;;;;28.02;19.17;;;10.10;71.50;;;;;;4967725;28;20117;-60
2023/03/21 06:04:35;;;;;;;25.60;18.58;;;10.10;71.20;;;;;;4973961;28;20093;-60
2023/03/21 06:07:00;;;;;;;23.27;16.75;;;10.20;71.30;;;;;;4974207;28;20034;-61
2023/03/21 06:09:26;;;;;;;22.50;17.40;;;10.30;71.40;;;;;;4974174;28;20030;-61
2023/03/21 06:11:54;;;;;;;22.73;16.83;;;10.60;71.80;;;;;;4961671;28;20114;-55
2023/03/21 06:14:20;;;;;;;22.45;16.25;;;11.00;71.90;;;;;;4968242;28;20054;-56
2023/03/21 06:16:46;;;;;;;20.80;15.90;;;11.60;71.80;;;;;;4973980;28;20041;-55
2023/03/21 06:19:12;;;;;;;21.02;15.75;;;12.20;70.80;;;;;;4970363;28;20031;-58
2023/03/21 06:21:37;;;;;;;20.40;16.08;;;13.00;69.20;;;;;;4974596;28;20057;-59
2023/03/21 06:24:03;;;;;;;20.67;16.38;;;13.60;67.30;;;;;;4969453;28;20034;-57
2023/03/21 06:26:29;;;;;;;19.25;15.93;;;14.00;65.80;;;;;;4974853;28;20065;-59
2023/03/21 06:28:55;;;;;;;21.60;15.93;;;14.20;64.80;;;;;;4976257;28;20439;-53
2023/03/21 06:31:25;;;;;;;21.20;16.52;;;14.30;64.50;;;;;;4976815;28;20482;-56
2023/03/21 06:33:51;;;;;;;19.63;15.13;;;14.30;64.20;;;;;;4976388;28;20031;-57
2023/03/21 06:36:18;;;;;;;21.23;16.60;;;14.20;64.30;;;;;;4967848;28;20106;-56
2023/03/21 06:38:45;;;;;;;19.80;16.00;;;14.00;64.50;;;;;;4973850;28;20042;-58
2023/03/21 06:41:11;;;;;;;23.73;15.90;;;13.90;64.90;;;;;;4967521;28;20034;-56
2023/03/21 06:43:37;;;;;;;20.48;15.75;;;13.70;65.10;;;;;;4975764;28;20026;-56
2023/03/21 06:46:04;;;;;;;19.08;15.02;;;13.60;65.20;;;;;;4963553;28;20062;-56
2023/03/21 06:48:30;;;;;;;21.75;15.77;;;13.50;65.20;;;;;;4967681;28;20398;-57
2023/03/21 06:50:56;;;;;;;20.35;15.02;;;13.30;65.40;;;;;;4957319;28;20446;-59
2023/03/21 06:53:26;;;;;;;22.75;15.98;;;13.20;65.40;;;;;;4970501;28;20117;-53
2023/03/21 06:55:52;;;;;;;21.48;15.95;;;13.10;65.60;;;;;;4975019;28;20394;-54
2023/03/21 06:58:18;;;;;;;20.73;15.27;;;13.00;65.70;;;;;;4962141;28;20038;-57
2023/03/21 07:00:44;;;;;;;20.15;14.45;;;12.80;65.90;;;;;;4963720;28;20744;-59
2023/03/21 07:03:11;;;;;;;19.63;14.88;;;12.70;66.20;;;;;;4967051;28;20026;-53
2023/03/21 07:05:38;;;;;;;21.35;16.00;;;12.50;66.30;;;;;;4966821;28;20661;-57
2023/03/21 07:08:04;;;;;;;21.92;16.52;;;12.30;66.50;;;;;;4968366;28;20405;-53
2023/03/21 07:10:30;;;;;;;21.00;15.10;;;12.20;66.80;;;;;;4965931;28;20035;-54
2023/03/21 07:12:58;;;;;;;24.65;17.45;;;12.00;67.00;;;;;;4962793;28;20053;-56
2023/03/21 07:15:23;;;;;;;21.83;16.23;;;11.80;67.40;;;;;;4968902;28;20031;-58
2023/03/21 07:17:49;;;;;;;19.90;15.32;;;11.70;67.80;;;;;;4963037;28;20912;-53
2023/03/21 07:20:15;;;;;;;22.52;15.45;;;11.70;68.10;;;;;;4963736;28;20470;-58
2023/03/21 07:22:41;;;;;;;20.63;14.77;;;11.60;68.20;;;;;;4962921;28;21232;-50
2023/03/21 07:25:07;;;;;;;22.23;16.67;;;11.60;68.50;;;;;;4954252;28;20050;-53
2023/03/21 07:27:33;;;;;;;23.02;17.63;;;11.60;68.50;;;;;;4961230;28;20073;-56
2023/03/21 07:29:59;;;;;;;23.42;17.05;;;11.60;68.70;;;;;;4958166;28;20034;-56
2023/03/21 07:32:28;;;;;;;22.52;17.15;;;11.70;68.90;;;;;;4964037;28;20035;-53
2023/03/21 07:34:54;;;;;;;24.02;18.77;;;11.70;68.90;;;;;;4967425;28;20394;-52
2023/03/21 07:37:20;;;;;;;24.10;17.45;;;11.80;68.80;;;;;;4958999;28;20516;-52
2023/03/21 07:39:46;;;;;;;22.05;17.80;;;11.90;68.80;;;;;;4962641;28;20035;-59
2023/03/21 07:42:12;;;;;;;24.67;17.75;;;12.00;68.30;;;;;;4961015;28;20034;-51
2023/03/21 07:44:38;;;;;;;24.67;18.35;;;12.00;68.10;;;;;;4961413;28;20031;-52
2023/03/21 07:47:04;;;;;;;25.55;16.77;;;11.90;68.00;;;;;;4963295;28;20039;-56
2023/03/21 07:49:30;;;;;;;26.45;19.13;;;11.90;68.50;;;;;;4958414;28;20042;-55
2023/03/21 07:51:56;;;;;;;28.13;19.77;;;11.90;67.80;;;;;;4967420;28;20073;-56
2023/03/21 07:54:22;;;;;;;27.83;19.52;;;11.90;67.80;;;;;;4992439;28;20042;-61
2023/03/21 07:56:48;;;;;;;24.67;19.35;;;11.90;67.50;;;;;;4963684;28;20126;-57
2023/03/21 07:59:14;;;;;;;25.30;18.90;;;11.90;67.40;;;;;;4960463;28;20042;-58
2023/03/21 08:01:39;;;;;;;25.88;19.67;;;11.90;67.70;;;;;;4958773;28;20053;-52
2023/03/21 08:04:05;;;;;;;24.73;19.45;;;12.00;67.50;;;;;;4961292;28;20654;-56
2023/03/21 08:06:31;;;;;;;26.33;20.90;;;11.90;67.30;;;;;;4952549;28;20031;-55
2023/03/21 08:08:58;;;;;;;24.83;19.90;;;11.90;66.80;;;;;;4953634;28;20113;-57
2023/03/21 08:11:23;;;;;;;27.92;20.60;;;11.90;66.70;;;;;;4959382;28;20034;-53
2023/03/21 08:13:50;;;;;;;27.20;19.92;;;11.90;66.70;;;;;;4952620;28;20058;-60
2023/03/21 08:16:16;;;;;;;30.67;21.73;;;11.90;66.90;;;;;;4950900;28;20042;-56
2023/03/21 08:18:42;;;;;;;24.20;19.27;;;11.80;66.70;;;;;;4951335;28;20046;-53
2023/03/21 08:21:08;;;;;;;32.20;20.88;;;11.80;66.40;;;;;;4955236;28;20042;-55
2023/03/21 08:23:35;;;;;;;24.38;19.58;;;11.80;66.50;;;;;;4952400;28;20035;-61
2023/03/21 08:26:00;;;;;;;26.75;20.17;;;11.80;66.70;;;;;;4953285;28;20047;-54
2023/03/21 08:28:26;;;;;;;27.90;20.42;;;11.70;66.70;;;;;;4962985;28;20737;-57
2023/03/21 08:30:52;;;;;;;25.17;18.58;;;11.60;66.70;;;;;;4956330;28;20067;-56
2023/03/21 08:33:18;;;;;;;24.30;19.48;;;11.60;66.40;;;;;;4953121;28;20057;-57
2023/03/21 08:35:45;;;;;;;28.33;19.17;;;11.60;66.70;;;;;;4961228;28;20468;-57
2023/03/21 08:38:11;;;;;;;24.58;20.08;;;11.60;66.90;;;;;;4962428;28;20034;-58
2023/03/21 08:40:37;;;;;;;30.77;21.95;;;11.50;66.90;;;;;;4958603;28;20031;-55
2023/03/21 08:43:03;;;;;;;26.50;19.90;;;11.50;67.10;;;;;;4964004;28;20738;-60
2023/03/21 08:45:29;;;;;;;26.73;20.05;;;11.50;67.40;;;;;;4961798;28;20123;-57
2023/03/21 08:47:55;;;;;;;29.73;21.58;;;11.60;67.50;;;;;;4967927;28;20031;-59
2023/03/21 08:50:23;;;;;;;27.10;20.40;;;11.60;67.70;;;;;;4964651;28;20034;-59
2023/03/21 08:52:49;;;;;;;29.92;20.08;;;11.60;68.20;;;;;;4963129;28;20065;-59
2023/03/21 08:55:16;;;;;;;27.35;20.25;;;11.50;67.50;;;;;;4964264;28;20039;-59
2023/03/21 08:57:43;;;;;;;26.45;19.85;;;11.50;67.60;;;;;;4962705;28;20042;-57
2023/03/21 09:00:13;;;;;;;30.67;22.98;;;11.60;67.90;;;;;;4958153;28;20059;-56
2023/03/21 09:02:44;;;;;;;29.65;21.88;;;11.60;68.10;;;;;;4964668;28;20392;-56
2023/03/21 09:05:11;;;;;;;29.50;21.98;;;11.60;68.20;;;;;;4957003;28;20058;-57
2023/03/21 09:07:38;;;;;;;30.60;23.05;;;11.60;67.90;;;;;;4959586;28;20039;-53
2023/03/21 09:10:05;;;;;;;28.70;21.73;;;11.60;67.70;;;;;;4957082;28;20035;-57
2023/03/21 09:12:32;;;;;;;28.58;21.52;;;11.60;68.00;;;;;;4963483;28;20511;-52
2023/03/21 09:14:58;;;;;;;30.35;23.30;;;11.60;67.80;;;;;;4960013;28;20552;-54
2023/03/21 09:17:23;;;;;;;31.15;22.35;;;11.50;67.80;;;;;;4956142;28;20038;-60
2023/03/21 09:19:49;;;;;;;33.75;25.20;;;11.50;67.80;;;;;;4959940;28;20039;-56
2023/03/21 09:22:20;;;;;;;32.35;22.10;;;11.50;67.80;;;;;;4955335;28;20053;-52
2023/03/21 09:24:48;;;;;;;27.00;21.30;;;11.50;67.70;;;;;;4960880;28;20051;-53
2023/03/21 09:27:21;;;;;;;27.90;20.50;;;11.50;67.50;;;;;;4958489;28;20042;-58
2023/03/21 09:29:50;;;;;;;29.73;21.48;;;11.40;67.50;;;;;;4956657;28;20541;-61
2023/03/21 09:32:17;;;;;;;31.35;22.42;;;11.40;67.60;;;;;;4955214;28;20387;-51
2023/03/21 09:34:44;;;;;;;30.38;21.73;;;11.30;67.70;;;;;;4956165;28;20162;-54
2023/03/21 09:37:11;;;;;;;31.33;22.35;;;11.30;67.80;;;;;;4951392;28;20062;-55
2023/03/21 09:39:41;;;;;;;32.38;23.13;;;11.30;68.10;;;;;;4953721;28;20038;-60
2023/03/21 09:42:25;;;;;;;29.98;22.15;;;11.20;68.30;;;;;;4951604;28;20674;-61
2023/03/21 09:44:52;;;;;;;33.97;23.35;;;11.20;68.50;;;;;;4950990;28;20124;-62
2023/03/21 09:47:33;;;;;;;36.22;23.13;;;11.10;68.80;;;;;;4953081;28;20027;-54
2023/03/21 09:50:11;;;;;;;34.95;23.27;;;11.10;68.80;;;;;;4954985;28;20035;-57
2023/03/21 09:52:53;;;;;;;30.92;21.52;;;11.10;69.00;;;;;;4960567;28;20812;-59
2023/03/21 09:55:39;;;;;;;36.28;24.00;;;11.00;69.00;;;;;;4957878;28;20121;-62
2023/03/21 09:58:19;;;;;;;33.67;23.52;;;10.90;69.20;;;;;;4961383;28;20039;-62
2023/03/21 10:00:48;;;;;;;38.78;25.10;;;10.80;69.20;;;;;;4958460;28;20469;-56
2023/03/21 10:03:25;;;;;;;38.38;24.27;;;10.80;69.50;;;;;;4965374;28;20035;-61
2023/03/21 10:05:57;;;;;;;36.78;24.88;;;10.60;69.50;;;;;;4956224;28;20445;-60
2023/03/21 10:08:46;;;;;;;35.00;23.00;;;10.50;69.80;;;;;;4952677;28;20043;-58
2023/03/21 10:11:23;;;;;;;39.10;24.30;;;10.40;70.10;;;;;;4956664;28;20042;-60
2023/03/21 10:13:54;;;;;;;34.05;23.02;;;10.30;70.60;;;;;;4953692;28;20030;-55
2023/03/21 10:16:27;;;;;;;29.08;21.02;;;10.30;71.00;;;;;;4954889;28;20070;-57
2023/03/21 10:18:54;;;;;;;35.13;23.60;;;10.20;71.10;;;;;;4952326;28;20038;-53
2023/03/21 10:21:25;;;;;;;31.73;21.33;;;10.10;71.40;;;;;;4949096;28;20030;-57
2023/03/21 10:23:52;;;;;;;;;;;10.10;71.70;;;;;;4949678;28;20043;-59
2023/03/21 10:26:20;;;;;;;28.50;19.23;;;10.00;72.00;;;;;;4946701;28;19927;-53
2023/03/21 10:28:47;;;;;;;25.02;17.90;;;10.00;72.10;;;;;;4957140;28;20041;-54
2023/03/21 10:31:24;;;;;;;22.70;18.27;;;9.90;72.30;;;;;;4952070;28;20047;-57
2023/03/21 10:33:53;;;;;;;26.75;17.70;;;9.90;72.60;;;;;;4951230;28;20233;-53
2023/03/21 10:36:24;;;;;;;27.33;18.52;;;10.00;72.70;;;;;;4951463;28;20030;-56
2023/03/21 10:38:59;;;;;;;27.48;19.95;;;10.00;72.80;;;;;;4958874;28;20759;-57
2023/03/21 10:41:24;;;;;;;27.92;19.23;;;10.10;72.70;;;;;;4956444;28;20401;-60
2023/03/21 10:44:07;;;;;;;27.92;19.63;;;10.10;72.60;;;;;;4964967;28;20055;-62
2023/03/21 10:46:34;;;;;;;28.30;19.70;;;10.20;72.40;;;;;;4960690;28;20057;-55
2023/03/21 10:49:00;;;;;;;32.55;20.40;;;10.20;72.30;;;;;;4953396;28;20037;-55
2023/03/21 10:51:30;;;;;;;27.15;18.95;;;10.20;72.40;;;;;;4952525;28;20042;-61
2023/03/21 10:54:10;;;;;;;29.15;20.52;;;10.20;72.60;;;;;;4953503;28;20039;-57
2023/03/21 10:56:41;;;;;;;28.02;19.90;;;10.30;72.70;;;;;;4955035;28;20358;-56
2023/03/21 10:59:15;;;;;;;24.25;18.60;;;10.30;72.70;;;;;;4957966;28;20039;-61
2023/03/21 11:01:45;;;;;;;26.30;18.77;;;10.40;72.70;;;;;;4950058;28;20035;-56
2023/03/21 11:04:16;;;;;;;28.80;19.55;;;10.50;72.70;;;;;;4956099;28;20049;-53
2023/03/21 11:06:45;;;;;;;;;;;10.50;72.60;;;;;;4950082;28;20086;-55
2023/03/21 11:09:19;;;;;;;23.35;16.88;;;10.60;72.80;;;;;;4951721;28;19958;-59
2023/03/21 11:11:54;;;;;;;24.23;17.35;;;10.70;72.50;;;;;;4952117;28;20609;-56
2023/03/21 11:14:39;;;;;;;23.10;16.38;;;10.80;72.40;;;;;;4956595;28;20038;-51
2023/03/21 11:17:17;;;;;;;28.77;18.17;;;10.90;72.30;;;;;;4954269;28;20027;-59
2023/03/21 11:19:53;;;;;;;27.20;17.40;;;11.00;72.10;;;;;;4948819;28;20461;-57
2023/03/21 11:22:24;;;;;;;25.13;18.33;;;11.10;72.00;;;;;;4953593;28;20087;-52
2023/03/21 11:25:00;;;;;;;21.45;16.23;;;11.10;71.80;;;;;;4957968;28;20085;-52
2023/03/21 11:27:28;;;;;;;23.70;17.75;;;11.10;71.80;;;;;;4955310;28;20042;-51
2023/03/21 11:29:56;;;;;;;26.00;17.85;;;11.20;71.70;;;;;;4958347;28;20047;-54
2023/03/21 11:32:29;;;;;;;25.98;18.23;;;11.20;71.50;;;;;;4957494;28;20262;-54
2023/03/21 11:35:04;;;;;;;24.08;16.58;;;11.30;71.70;;;;;;4952981;28;20188;-52
2023/03/21 11:37:38;;;;;;;22.20;15.90;;;11.30;71.60;;;;;;4957964;28;20045;-50
2023/03/21 11:40:25;;;;;;;27.63;17.83;;;11.30;71.50;;;;;;4954731;28;20042;-56
2023/03/21 11:42:57;;;;;;;23.63;16.70;;;11.30;71.40;;;;;;4954100;28;20039;-51
2023/03/21 11:45:29;;;;;;;22.35;16.45;;;11.40;71.50;;;;;;4950520;28;20071;-52
2023/03/21 11:47:57;;;;;;;22.33;16.48;;;11.40;71.40;;;;;;4956157;28;20165;-52
2023/03/21 11:50:33;;;;;;;21.58;15.68;;;11.40;71.40;;;;;;4950990;28;20046;-56
2023/03/21 11:53:21;;;;;;;21.10;15.20;;;11.50;71.40;;;;;;4957728;28;20062;-56
2023/03/21 11:56:03;;;;;;;22.60;15.50;;;11.50;71.10;;;;;;4955030;28;20047;-58
2023/03/21 11:59:00;;;;;;;25.20;16.23;;;11.40;70.90;;;;;;4958456;28;20034;-54
2023/03/21 12:01:31;;;;;;;19.27;14.48;;;11.30;71.00;;;;;;4956341;28;20031;-56
2023/03/21 12:04:11;;;;;;;25.50;16.15;;;11.30;71.00;;;;;;4953237;28;20058;-53
2023/03/21 12:06:44;;;;;;;23.58;15.65;;;11.20;71.90;;;;;;4956077;28;20039;-50
2023/03/21 12:09:21;;;;;;;20.17;14.48;;;11.20;71.40;;;;;;4948337;28;20065;-55
2023/03/21 12:12:09;;;;;;;21.23;14.52;;;11.30;71.50;;;;;;4952200;28;20055;-51
2023/03/21 12:15:08;;;;;;;21.58;15.95;;;11.30;71.50;;;;;;4956352;28;20058;-52
2023/03/21 12:17:49;;;;;;;24.02;15.98;;;11.30;71.40;;;;;;4956836;28;20035;-50
2023/03/21 12:20:37;;;;;;;25.77;16.40;;;11.30;71.30;;;;;;4948345;28;20031;-57
2023/03/21 12:23:11;;;;;;;23.05;15.38;;;11.30;71.20;;;;;;4963543;28;20051;-57
2023/03/21 12:26:02;;;;;;;21.83;15.23;;;11.30;71.20;;;;;;4955110;28;20055;-52
2023/03/21 12:28:56;;;;;;;23.77;15.45;;;11.30;71.30;;;;;;4960122;28;20039;-55
2023/03/21 12:31:43;;;;;;;24.73;15.70;;;11.30;71.40;;;;;;4953372;28;20043;-51
2023/03/21 12:34:41;;;;;;;21.58;14.90;;;11.30;71.20;;;;;;4949654;28;20043;-53
2023/03/21 12:37:22;;;;;;;18.17;14.10;;;11.30;71.20;;;;;;4954491;28;20078;-53
2023/03/21 12:39:49;;;;;;;22.15;14.95;;;11.30;71.20;;;;;;4962662;28;20054;-56
2023/03/21 12:42:43;;;;;;;22.45;15.75;;;11.30;71.30;;;;;;4954080;28;20035;-50
2023/03/21 12:45:16;;;;;;;21.17;14.88;;;11.30;71.30;;;;;;4953267;28;20043;-56
2023/03/21 12:47:47;;;;;;;23.52;15.88;;;11.30;71.30;;;;;;4960452;28;20055;-52
2023/03/21 12:50:21;;;;;;;22.48;15.07;;;11.20;71.40;;;;;;4954954;28;20035;-48
2023/03/21 12:52:56;;;;;;;23.10;15.98;;;11.30;71.40;;;;;;4957501;28;20106;-56